sensor_id;sensor_type;location;lat;lon;timestamp;temperature;humidity
21666;DHT22;10994;45.486;9.190;2022-11-10T10:48:28;14.70;99.90
21666;DHT22;10994;45.486;9.190;2022-11-10T10:51:30;15.20;99.90
21666;DHT22;10994;45.486;9.190;2022-11-10T10:54:41;15.20;99.90
21666;DHT22;10994;45.486;9.190;2022-11-10T10:57:27;15.20;99.90
21666;DHT22;10994;45.486;9.190;2022-11-10T11:00:20;15.20;99.90
21666;DHT22;10994;45.486;9.190;2022-11-10T11:03:10;15.30;99.90
21666;DHT22;10994;45.486;9.190;2022-11-10T11:06:06;15.30;99.90
21666;DHT22;10994;45.486;9.190;2022-11-10T11:11:43;15.50;99.90
21666;DHT22;10994;45.486;9.190;2022-11-10T11:14:29;15.50;99.90
21666;DHT22;10994;45.486;9.190;2022-11-10T11:17:21;15.50;99.90
21666;DHT22;10994;45.486;9.190;2022-11-10T11:20:12;15.60;99.90
21666;DHT22;10994;45.486;9.190;2022-11-10T11:32:16;15.60;99.90
21666;DHT22;10994;45.486;9.190;2022-11-10T11:35:26;15.50;99.90
21666;DHT22;10994;45.486;9.190;2022-11-10T11:38:15;15.50;99.90
21666;DHT22;10994;45.486;9.190;2022-11-10T11:44:04;15.50;99.90
21666;DHT22;10994;45.486;9.190;2022-11-10T11:50:26;15.60;99.90
21666;DHT22;10994;45.486;9.190;2022-11-10T11:56:59;15.60;99.90
21666;DHT22;10994;45.486;9.190;2022-11-10T14:21:42;15.70;99.90
21666;DHT22;10994;45.486;9.190;2022-11-10T14:24:35;16.50;99.90
21666;DHT22;10994;45.486;9.190;2022-11-10T14:27:32;16.50;99.90
21666;DHT22;10994;45.486;9.190;2022-11-10T14:33:12;16.40;99.90
21666;DHT22;10994;45.486;9.190;2022-11-10T14:35:58;16.40;99.90
21666;DHT22;10994;45.486;9.190;2022-11-10T14:38:43;16.30;99.90
21666;DHT22;10994;45.486;9.190;2022-11-10T14:41:28;16.10;99.90
21666;DHT22;10994;45.486;9.190;2022-11-10T14:44:19;16.00;99.90
21666;DHT22;10994;45.486;9.190;2022-11-10T14:47:26;16.00;99.90
21666;DHT22;10994;45.486;9.190;2022-11-10T14:53:06;15.90;99.90
21666;DHT22;10994;45.486;9.190;2022-11-10T14:55:51;15.90;99.90
21666;DHT22;10994;45.486;9.190;2022-11-10T14:58:37;16.00;99.90
21666;DHT22;10994;45.486;9.190;2022-11-10T15:01:33;16.10;99.90
21666;DHT22;10994;45.486;9.190;2022-11-10T15:04:18;16.10;99.90
21666;DHT22;10994;45.486;9.190;2022-11-10T15:07:04;16.00;99.90
21666;DHT22;10994;45.486;9.190;2022-11-10T15:10:20;16.00;99.90
21666;DHT22;10994;45.486;9.190;2022-11-10T15:16:38;15.90;99.90
21666;DHT22;10994;45.486;9.190;2022-11-10T15:19:28;15.80;99.90
21666;DHT22;10994;45.486;9.190;2022-11-10T15:22:36;15.80;99.90
21666;DHT22;10994;45.486;9.190;2022-11-10T15:25:22;15.80;99.90
21666;DHT22;10994;45.486;9.190;2022-11-10T15:31:32;15.90;99.90
21666;DHT22;10994;45.486;9.190;2022-11-10T15:34:38;15.80;99.90
21666;DHT22;10994;45.486;9.190;2022-11-10T15:37:28;15.60;99.90
21666;DHT22;10994;45.486;9.190;2022-11-10T15:40:38;15.50;99.90
21666;DHT22;10994;45.486;9.190;2022-11-10T15:43:26;15.50;99.90
21666;DHT22;10994;45.486;9.190;2022-11-10T15:46:17;15.50;99.90
21666;DHT22;10994;45.486;9.190;2022-11-10T15:49:02;15.50;99.90
21666;DHT22;10994;45.486;9.190;2022-11-10T15:51:51;15.60;99.90
21666;DHT22;10994;45.486;9.190;2022-11-10T15:54:36;15.60;99.90
21666;DHT22;10994;45.486;9.190;2022-11-10T15:57:20;15.60;99.90
21666;DHT22;10994;45.486;9.190;2022-11-10T16:00:05;15.60;99.90
21666;DHT22;10994;45.486;9.190;2022-11-10T16:02:50;15.60;99.90
21666;DHT22;10994;45.486;9.190;2022-11-10T16:05:35;15.40;99.90
21666;DHT22;10994;45.486;9.190;2022-11-10T16:08:23;15.30;99.90
21666;DHT22;10994;45.486;9.190;2022-11-10T16:11:17;15.30;99.90
21666;DHT22;10994;45.486;9.190;2022-11-10T16:14:02;15.40;99.90
21666;DHT22;10994;45.486;9.190;2022-11-10T16:16:47;15.50;99.90
21666;DHT22;10994;45.486;9.190;2022-11-10T16:19:34;15.50;99.90
21666;DHT22;10994;45.486;9.190;2022-11-10T16:22:18;15.40;99.90
21666;DHT22;10994;45.486;9.190;2022-11-10T16:25:02;15.30;99.90
21666;DHT22;10994;45.486;9.190;2022-11-10T16:27:47;15.20;99.90
21666;DHT22;10994;45.486;9.190;2022-11-10T16:30:32;15.30;99.90
21666;DHT22;10994;45.486;9.190;2022-11-10T16:33:19;15.30;99.90
21666;DHT22;10994;45.486;9.190;2022-11-10T16:39:11;15.50;99.90
21666;DHT22;10994;45.486;9.190;2022-11-10T16:41:56;15.40;99.90
21666;DHT22;10994;45.486;9.190;2022-11-10T16:44:41;15.40;99.90
21666;DHT22;10994;45.486;9.190;2022-11-10T16:47:26;15.50;99.90
21666;DHT22;10994;45.486;9.190;2022-11-10T16:50:48;15.50;99.90
21666;DHT22;10994;45.486;9.190;2022-11-10T16:53:34;15.60;99.90
21666;DHT22;10994;45.486;9.190;2022-11-10T16:56:21;15.60;99.90
21666;DHT22;10994;45.486;9.190;2022-11-10T16:59:05;15.60;99.90
21666;DHT22;10994;45.486;9.190;2022-11-10T17:01:52;15.60;99.90
21666;DHT22;10994;45.486;9.190;2022-11-10T17:04:36;15.70;99.90
21666;DHT22;10994;45.486;9.190;2022-11-10T17:07:24;15.30;99.90
21666;DHT22;10994;45.486;9.190;2022-11-10T17:10:14;15.30;99.90
21666;DHT22;10994;45.486;9.190;2022-11-10T17:12:58;15.40;99.90
21666;DHT22;10994;45.486;9.190;2022-11-10T17:15:43;15.50;99.90
21666;DHT22;10994;45.486;9.190;2022-11-10T17:18:28;15.50;99.90
21666;DHT22;10994;45.486;9.190;2022-11-10T17:21:13;15.60;99.90
21666;DHT22;10994;45.486;9.190;2022-11-10T17:23:57;15.60;99.90
21666;DHT22;10994;45.486;9.190;2022-11-10T17:26:43;15.60;99.90
21666;DHT22;10994;45.486;9.190;2022-11-10T17:29:27;15.70;99.90
21666;DHT22;10994;45.486;9.190;2022-11-10T17:32:12;15.70;99.90
21666;DHT22;10994;45.486;9.190;2022-11-10T17:34:56;15.70;99.90
21666;DHT22;10994;45.486;9.190;2022-11-10T17:37:42;15.70;99.90
21666;DHT22;10994;45.486;9.190;2022-11-10T17:40:28;15.70;99.90
21666;DHT22;10994;45.486;9.190;2022-11-10T17:43:14;15.70;99.90
21666;DHT22;10994;45.486;9.190;2022-11-10T17:45:59;15.80;99.90
21666;DHT22;10994;45.486;9.190;2022-11-10T17:48:43;15.70;99.90
21666;DHT22;10994;45.486;9.190;2022-11-10T17:51:31;15.80;99.90
21666;DHT22;10994;45.486;9.190;2022-11-10T17:54:16;15.70;99.90
21666;DHT22;10994;45.486;9.190;2022-11-10T17:57:00;15.70;99.90
21666;DHT22;10994;45.486;9.190;2022-11-10T17:59:47;15.80;99.90
21666;DHT22;10994;45.486;9.190;2022-11-10T18:02:31;15.80;99.90
21666;DHT22;10994;45.486;9.190;2022-11-10T18:05:16;15.90;99.90
21666;DHT22;10994;45.486;9.190;2022-11-10T18:08:01;15.90;99.90
21666;DHT22;10994;45.486;9.190;2022-11-10T18:10:50;15.90;99.90
21666;DHT22;10994;45.486;9.190;2022-11-10T18:13:36;15.70;99.90
21666;DHT22;10994;45.486;9.190;2022-11-10T18:16:21;15.60;99.90
21666;DHT22;10994;45.486;9.190;2022-11-10T18:19:05;15.60;99.90
21666;DHT22;10994;45.486;9.190;2022-11-10T18:21:49;15.60;99.90
21666;DHT22;10994;45.486;9.190;2022-11-10T18:24:33;15.60;99.90
21666;DHT22;10994;45.486;9.190;2022-11-10T18:27:17;15.60;99.90
21666;DHT22;10994;45.486;9.190;2022-11-10T18:30:03;15.70;99.90
21666;DHT22;10994;45.486;9.190;2022-11-10T18:32:47;15.70;99.90
21666;DHT22;10994;45.486;9.190;2022-11-10T18:35:34;15.60;99.90
21666;DHT22;10994;45.486;9.190;2022-11-10T18:38:20;15.50;99.90
21666;DHT22;10994;45.486;9.190;2022-11-10T18:41:05;15.40;99.90
21666;DHT22;10994;45.486;9.190;2022-11-10T18:44:08;15.40;99.90
21666;DHT22;10994;45.486;9.190;2022-11-10T18:46:53;15.30;99.90
21666;DHT22;10994;45.486;9.190;2022-11-10T18:49:37;15.30;99.90
21666;DHT22;10994;45.486;9.190;2022-11-10T18:52:21;15.20;99.90
21666;DHT22;10994;45.486;9.190;2022-11-10T18:55:08;15.20;99.90
21666;DHT22;10994;45.486;9.190;2022-11-10T18:57:53;15.10;99.90
21666;DHT22;10994;45.486;9.190;2022-11-10T19:00:38;15.10;99.90
21666;DHT22;10994;45.486;9.190;2022-11-10T19:03:22;15.10;99.90
21666;DHT22;10994;45.486;9.190;2022-11-10T19:06:06;15.20;99.90
21666;DHT22;10994;45.486;9.190;2022-11-10T19:08:50;15.10;99.90
21666;DHT22;10994;45.486;9.190;2022-11-10T19:11:34;15.10;99.90
21666;DHT22;10994;45.486;9.190;2022-11-10T19:14:18;15.10;99.90
21666;DHT22;10994;45.486;9.190;2022-11-10T19:17:03;15.20;99.90
21666;DHT22;10994;45.486;9.190;2022-11-10T19:19:47;15.30;99.90
21666;DHT22;10994;45.486;9.190;2022-11-10T19:22:32;15.30;99.90
21666;DHT22;10994;45.486;9.190;2022-11-10T19:25:16;15.40;99.90
21666;DHT22;10994;45.486;9.190;2022-11-10T19:28:00;15.40;99.90
21666;DHT22;10994;45.486;9.190;2022-11-10T19:30:44;15.30;99.90
21666;DHT22;10994;45.486;9.190;2022-11-10T19:33:30;15.30;99.90
21666;DHT22;10994;45.486;9.190;2022-11-10T19:36:25;15.30;99.90
21666;DHT22;10994;45.486;9.190;2022-11-10T19:39:10;15.40;99.90
21666;DHT22;10994;45.486;9.190;2022-11-10T19:41:54;15.50;99.90
21666;DHT22;10994;45.486;9.190;2022-11-10T19:44:39;15.50;99.90
21666;DHT22;10994;45.486;9.190;2022-11-10T19:47:23;15.50;99.90
21666;DHT22;10994;45.486;9.190;2022-11-10T19:50:07;15.50;99.90
21666;DHT22;10994;45.486;9.190;2022-11-10T19:52:51;15.50;99.90
21666;DHT22;10994;45.486;9.190;2022-11-10T19:55:35;15.50;99.90
21666;DHT22;10994;45.486;9.190;2022-11-10T19:58:19;15.50;99.90
21666;DHT22;10994;45.486;9.190;2022-11-10T20:01:05;15.60;99.90
21666;DHT22;10994;45.486;9.190;2022-11-10T20:03:49;15.60;99.90
21666;DHT22;10994;45.486;9.190;2022-11-10T20:06:33;15.70;99.90
21666;DHT22;10994;45.486;9.190;2022-11-10T20:09:17;15.70;99.90
21666;DHT22;10994;45.486;9.190;2022-11-10T20:12:01;15.80;99.90
21666;DHT22;10994;45.486;9.190;2022-11-10T20:14:45;15.80;99.90
21666;DHT22;10994;45.486;9.190;2022-11-10T20:17:29;15.90;99.90
21666;DHT22;10994;45.486;9.190;2022-11-10T20:20:14;15.90;99.90
21666;DHT22;10994;45.486;9.190;2022-11-10T20:23:02;15.90;99.90
21666;DHT22;10994;45.486;9.190;2022-11-10T20:25:47;15.90;99.90
21666;DHT22;10994;45.486;9.190;2022-11-10T20:28:32;15.90;99.90
21666;DHT22;10994;45.486;9.190;2022-11-10T20:31:26;15.90;99.90
21666;DHT22;10994;45.486;9.190;2022-11-10T20:34:10;15.90;99.90
21666;DHT22;10994;45.486;9.190;2022-11-10T20:36:54;15.90;99.90
21666;DHT22;10994;45.486;9.190;2022-11-10T20:39:39;15.90;99.90
21666;DHT22;10994;45.486;9.190;2022-11-10T20:42:26;15.90;99.90
21666;DHT22;10994;45.486;9.190;2022-11-10T20:45:14;15.90;99.90
21666;DHT22;10994;45.486;9.190;2022-11-10T20:47:58;15.90;99.90
21666;DHT22;10994;45.486;9.190;2022-11-10T20:50:42;15.90;99.90
21666;DHT22;10994;45.486;9.190;2022-11-10T20:53:27;15.90;99.90
21666;DHT22;10994;45.486;9.190;2022-11-10T20:56:13;15.90;99.90
21666;DHT22;10994;45.486;9.190;2022-11-10T20:58:59;15.90;99.90
21666;DHT22;10994;45.486;9.190;2022-11-10T21:01:43;15.90;99.90
21666;DHT22;10994;45.486;9.190;2022-11-10T21:04:27;15.90;99.90
21666;DHT22;10994;45.486;9.190;2022-11-10T21:07:11;15.90;99.90
21666;DHT22;10994;45.486;9.190;2022-11-10T21:09:55;15.90;99.90
21666;DHT22;10994;45.486;9.190;2022-11-10T21:12:39;15.90;99.90
21666;DHT22;10994;45.486;9.190;2022-11-10T21:15:37;15.90;99.90
21666;DHT22;10994;45.486;9.190;2022-11-10T21:18:24;15.90;99.90
21666;DHT22;10994;45.486;9.190;2022-11-10T21:21:23;15.90;99.90
21666;DHT22;10994;45.486;9.190;2022-11-10T21:24:11;15.90;99.90
21666;DHT22;10994;45.486;9.190;2022-11-10T21:26:56;15.80;99.90
21666;DHT22;10994;45.486;9.190;2022-11-10T21:29:41;15.90;99.90
21666;DHT22;10994;45.486;9.190;2022-11-10T21:32:25;15.90;99.90
21666;DHT22;10994;45.486;9.190;2022-11-10T21:35:09;15.90;99.90
21666;DHT22;10994;45.486;9.190;2022-11-10T21:37:53;15.90;99.90
21666;DHT22;10994;45.486;9.190;2022-11-10T21:40:37;15.90;99.90
21666;DHT22;10994;45.486;9.190;2022-11-10T21:43:21;15.80;99.90
21666;DHT22;10994;45.486;9.190;2022-11-10T21:46:05;15.80;99.90
21666;DHT22;10994;45.486;9.190;2022-11-10T21:48:50;15.70;99.90
21666;DHT22;10994;45.486;9.190;2022-11-10T21:51:35;15.70;99.90
21666;DHT22;10994;45.486;9.190;2022-11-10T21:54:19;15.50;99.90
21666;DHT22;10994;45.486;9.190;2022-11-10T21:57:23;15.40;99.90
21666;DHT22;10994;45.486;9.190;2022-11-10T22:00:09;15.40;99.90
21666;DHT22;10994;45.486;9.190;2022-11-10T22:03:01;15.40;99.90
21666;DHT22;10994;45.486;9.190;2022-11-10T22:05:46;15.50;99.90
21666;DHT22;10994;45.486;9.190;2022-11-10T22:08:30;15.40;99.90
21666;DHT22;10994;45.486;9.190;2022-11-10T22:11:17;15.30;99.90
21666;DHT22;10994;45.486;9.190;2022-11-10T22:14:21;15.30;99.90
21666;DHT22;10994;45.486;9.190;2022-11-10T22:17:24;15.30;99.90
21666;DHT22;10994;45.486;9.190;2022-11-10T22:20:27;15.20;99.90
21666;DHT22;10994;45.486;9.190;2022-11-10T22:23:11;15.10;99.90
21666;DHT22;10994;45.486;9.190;2022-11-10T22:25:55;15.00;99.90
21666;DHT22;10994;45.486;9.190;2022-11-10T22:28:40;15.00;99.90
21666;DHT22;10994;45.486;9.190;2022-11-10T22:31:24;15.10;99.90
21666;DHT22;10994;45.486;9.190;2022-11-10T22:34:08;15.10;99.90
21666;DHT22;10994;45.486;9.190;2022-11-10T22:36:53;15.00;99.90
21666;DHT22;10994;45.486;9.190;2022-11-10T22:39:41;15.00;99.90
21666;DHT22;10994;45.486;9.190;2022-11-10T22:42:44;14.90;99.90
21666;DHT22;10994;45.486;9.190;2022-11-10T22:45:47;14.70;99.90
21666;DHT22;10994;45.486;9.190;2022-11-10T22:48:32;14.60;99.90
21666;DHT22;10994;45.486;9.190;2022-11-10T22:51:16;14.50;99.90
21666;DHT22;10994;45.486;9.190;2022-11-10T22:54:01;14.40;99.90
21666;DHT22;10994;45.486;9.190;2022-11-10T22:56:46;14.30;99.90
21666;DHT22;10994;45.486;9.190;2022-11-10T22:59:31;14.20;99.90
21666;DHT22;10994;45.486;9.190;2022-11-10T23:02:15;14.20;99.90
21666;DHT22;10994;45.486;9.190;2022-11-10T23:04:59;14.20;99.90
21666;DHT22;10994;45.486;9.190;2022-11-10T23:07:44;14.10;99.90
21666;DHT22;10994;45.486;9.190;2022-11-10T23:10:28;14.10;99.90
21666;DHT22;10994;45.486;9.190;2022-11-10T23:13:12;14.10;99.90
21666;DHT22;10994;45.486;9.190;2022-11-10T23:16:02;14.10;99.90
21666;DHT22;10994;45.486;9.190;2022-11-10T23:18:49;14.10;99.90
21666;DHT22;10994;45.486;9.190;2022-11-10T23:21:33;14.10;99.90
21666;DHT22;10994;45.486;9.190;2022-11-10T23:24:17;14.10;99.90
21666;DHT22;10994;45.486;9.190;2022-11-10T23:27:06;14.00;99.90
21666;DHT22;10994;45.486;9.190;2022-11-10T23:29:50;14.00;99.90
21666;DHT22;10994;45.486;9.190;2022-11-10T23:32:35;14.00;99.90
21666;DHT22;10994;45.486;9.190;2022-11-10T23:35:19;13.90;99.90
21666;DHT22;10994;45.486;9.190;2022-11-10T23:38:03;13.90;99.90
21666;DHT22;10994;45.486;9.190;2022-11-10T23:40:47;13.90;99.90
21666;DHT22;10994;45.486;9.190;2022-11-10T23:43:31;14.00;99.90
21666;DHT22;10994;45.486;9.190;2022-11-10T23:46:16;14.00;99.90
21666;DHT22;10994;45.486;9.190;2022-11-10T23:49:00;14.00;99.90
21666;DHT22;10994;45.486;9.190;2022-11-10T23:51:44;13.90;99.90
21666;DHT22;10994;45.486;9.190;2022-11-10T23:54:28;14.00;99.90
21666;DHT22;10994;45.486;9.190;2022-11-10T23:57:12;14.10;99.90
21666;DHT22;10994;45.486;9.190;2022-11-10T23:59:56;14.10;99.90
